sensor_id;sensor_type;location;lat;lon;timestamp;temperature;humidity
43185;DHT22;28803;52.308;19.096;2022-12-18T00:02:27;-7.40;99.90
43185;DHT22;28803;52.308;19.096;2022-12-18T00:04:54;-7.50;99.90
43185;DHT22;28803;52.308;19.096;2022-12-18T00:07:21;-7.60;99.90
43185;DHT22;28803;52.308;19.096;2022-12-18T00:09:48;-7.60;99.90
43185;DHT22;28803;52.308;19.096;2022-12-18T00:12:16;-7.70;99.90
43185;DHT22;28803;52.308;19.096;2022-12-18T00:14:43;-7.70;99.90
43185;DHT22;28803;52.308;19.096;2022-12-18T00:17:12;-7.70;99.90
43185;DHT22;28803;52.308;19.096;2022-12-18T00:19:39;-7.60;99.90
43185;DHT22;28803;52.308;19.096;2022-12-18T00:22:06;-7.60;99.90
43185;DHT22;28803;52.308;19.096;2022-12-18T00:24:33;-7.50;99.90
43185;DHT22;28803;52.308;19.096;2022-12-18T00:27:00;-7.40;99.90
43185;DHT22;28803;52.308;19.096;2022-12-18T00:29:27;-7.20;99.90
43185;DHT22;28803;52.308;19.096;2022-12-18T00:31:54;-7.00;99.90
43185;DHT22;28803;52.308;19.096;2022-12-18T00:34:21;-6.80;99.90
43185;DHT22;28803;52.308;19.096;2022-12-18T00:36:49;-6.60;99.90
43185;DHT22;28803;52.308;19.096;2022-12-18T00:39:16;-6.50;99.90
43185;DHT22;28803;52.308;19.096;2022-12-18T00:41:43;-6.40;99.90
43185;DHT22;28803;52.308;19.096;2022-12-18T00:44:28;-6.30;99.90
43185;DHT22;28803;52.308;19.096;2022-12-18T00:46:55;-6.10;99.90
43185;DHT22;28803;52.308;19.096;2022-12-18T00:49:23;-6.00;99.90
43185;DHT22;28803;52.308;19.096;2022-12-18T00:51:50;-5.90;99.90
43185;DHT22;28803;52.308;19.096;2022-12-18T00:54:17;-5.80;99.90
43185;DHT22;28803;52.308;19.096;2022-12-18T00:56:45;-5.80;99.90
43185;DHT22;28803;52.308;19.096;2022-12-18T00:59:17;-5.70;99.90
43185;DHT22;28803;52.308;19.096;2022-12-18T01:01:45;-5.70;99.90
43185;DHT22;28803;52.308;19.096;2022-12-18T01:04:13;-5.70;99.90
43185;DHT22;28803;52.308;19.096;2022-12-18T01:06:40;-5.70;99.90
43185;DHT22;28803;52.308;19.096;2022-12-18T01:09:07;-5.60;99.90
43185;DHT22;28803;52.308;19.096;2022-12-18T01:11:34;-5.60;99.90
43185;DHT22;28803;52.308;19.096;2022-12-18T01:14:02;-5.60;99.90
43185;DHT22;28803;52.308;19.096;2022-12-18T01:16:29;-5.60;99.90
43185;DHT22;28803;52.308;19.096;2022-12-18T01:18:56;-5.50;99.90
43185;DHT22;28803;52.308;19.096;2022-12-18T01:21:23;-5.50;99.90
43185;DHT22;28803;52.308;19.096;2022-12-18T01:23:52;-5.50;99.90
43185;DHT22;28803;52.308;19.096;2022-12-18T01:26:20;-5.40;99.90
43185;DHT22;28803;52.308;19.096;2022-12-18T01:28:47;-5.40;99.90
43185;DHT22;28803;52.308;19.096;2022-12-18T01:31:20;-5.40;99.90
43185;DHT22;28803;52.308;19.096;2022-12-18T01:33:48;-5.40;99.90
43185;DHT22;28803;52.308;19.096;2022-12-18T01:36:22;-5.40;99.90
43185;DHT22;28803;52.308;19.096;2022-12-18T01:38:48;-5.40;99.90
43185;DHT22;28803;52.308;19.096;2022-12-18T01:41:24;-5.30;99.90
43185;DHT22;28803;52.308;19.096;2022-12-18T01:43:54;-5.30;99.90
43185;DHT22;28803;52.308;19.096;2022-12-18T01:46:22;-5.20;99.90
43185;DHT22;28803;52.308;19.096;2022-12-18T01:48:53;-5.30;99.90
43185;DHT22;28803;52.308;19.096;2022-12-18T01:51:21;-5.20;99.90
43185;DHT22;28803;52.308;19.096;2022-12-18T01:53:48;-5.20;99.90
43185;DHT22;28803;52.308;19.096;2022-12-18T01:56:19;-5.20;99.90
43185;DHT22;28803;52.308;19.096;2022-12-18T01:58:58;-5.10;99.90
43185;DHT22;28803;52.308;19.096;2022-12-18T02:01:27;-5.20;99.90
43185;DHT22;28803;52.308;19.096;2022-12-18T02:03:56;-5.20;99.90
43185;DHT22;28803;52.308;19.096;2022-12-18T02:06:37;-5.10;99.90
43185;DHT22;28803;52.308;19.096;2022-12-18T02:09:19;-5.10;99.90
43185;DHT22;28803;52.308;19.096;2022-12-18T02:12:18;-5.10;99.90
43185;DHT22;28803;52.308;19.096;2022-12-18T02:15:19;-5.10;99.90
43185;DHT22;28803;52.308;19.096;2022-12-18T02:17:58;-5.00;99.90
43185;DHT22;28803;52.308;19.096;2022-12-18T02:20:36;-5.00;99.90
43185;DHT22;28803;52.308;19.096;2022-12-18T02:29:10;-4.90;99.90
43185;DHT22;28803;52.308;19.096;2022-12-18T02:31:57;-4.80;99.90
43185;DHT22;28803;52.308;19.096;2022-12-18T02:34:28;-4.80;99.90
43185;DHT22;28803;52.308;19.096;2022-12-18T02:36:58;-4.80;99.90
43185;DHT22;28803;52.308;19.096;2022-12-18T02:39:27;-4.80;99.90
43185;DHT22;28803;52.308;19.096;2022-12-18T02:41:57;-4.70;99.90
43185;DHT22;28803;52.308;19.096;2022-12-18T02:44:24;-4.80;99.90
43185;DHT22;28803;52.308;19.096;2022-12-18T02:46:52;-4.70;99.90
43185;DHT22;28803;52.308;19.096;2022-12-18T02:52:48;-4.70;99.90
43185;DHT22;28803;52.308;19.096;2022-12-18T02:55:25;-4.70;99.90
43185;DHT22;28803;52.308;19.096;2022-12-18T02:57:58;-4.60;99.90
43185;DHT22;28803;52.308;19.096;2022-12-18T03:00:43;-4.70;99.90
43185;DHT22;28803;52.308;19.096;2022-12-18T03:03:32;-4.70;99.90
43185;DHT22;28803;52.308;19.096;2022-12-18T03:06:14;-4.60;99.90
43185;DHT22;28803;52.308;19.096;2022-12-18T03:08:48;-4.60;99.90
43185;DHT22;28803;52.308;19.096;2022-12-18T03:11:16;-4.60;99.90
43185;DHT22;28803;52.308;19.096;2022-12-18T03:14:04;-4.60;99.90
43185;DHT22;28803;52.308;19.096;2022-12-18T03:16:34;-4.60;99.90
43185;DHT22;28803;52.308;19.096;2022-12-18T03:19:13;-4.60;99.90
43185;DHT22;28803;52.308;19.096;2022-12-18T03:21:50;-4.60;99.90
43185;DHT22;28803;52.308;19.096;2022-12-18T03:24:19;-4.60;99.90
43185;DHT22;28803;52.308;19.096;2022-12-18T03:26:52;-4.60;99.90
43185;DHT22;28803;52.308;19.096;2022-12-18T03:29:26;-4.50;99.90
43185;DHT22;28803;52.308;19.096;2022-12-18T03:32:00;-4.50;99.90
43185;DHT22;28803;52.308;19.096;2022-12-18T03:34:34;-4.60;99.90
43185;DHT22;28803;52.308;19.096;2022-12-18T03:37:03;-4.60;99.90
43185;DHT22;28803;52.308;19.096;2022-12-18T03:39:30;-4.60;99.90
43185;DHT22;28803;52.308;19.096;2022-12-18T03:42:25;-4.60;99.90
43185;DHT22;28803;52.308;19.096;2022-12-18T03:50:56;-4.50;99.90
43185;DHT22;28803;52.308;19.096;2022-12-18T03:53:36;-4.50;99.90
43185;DHT22;28803;52.308;19.096;2022-12-18T03:56:05;-4.50;99.90
43185;DHT22;28803;52.308;19.096;2022-12-18T03:58:34;-4.50;99.90
43185;DHT22;28803;52.308;19.096;2022-12-18T04:01:05;-4.50;99.90
43185;DHT22;28803;52.308;19.096;2022-12-18T04:03:35;-4.50;99.90
43185;DHT22;28803;52.308;19.096;2022-12-18T04:06:03;-4.40;99.90
43185;DHT22;28803;52.308;19.096;2022-12-18T04:08:32;-4.50;99.90
43185;DHT22;28803;52.308;19.096;2022-12-18T04:11:02;-4.40;99.90
43185;DHT22;28803;52.308;19.096;2022-12-18T04:13:37;-4.40;99.90
43185;DHT22;28803;52.308;19.096;2022-12-18T04:16:05;-4.40;99.90
43185;DHT22;28803;52.308;19.096;2022-12-18T04:18:33;-4.40;99.90
43185;DHT22;28803;52.308;19.096;2022-12-18T04:21:01;-4.40;99.90
43185;DHT22;28803;52.308;19.096;2022-12-18T04:23:28;-4.40;99.90
43185;DHT22;28803;52.308;19.096;2022-12-18T04:25:55;-4.40;99.90
43185;DHT22;28803;52.308;19.096;2022-12-18T04:28:22;-4.40;99.90
43185;DHT22;28803;52.308;19.096;2022-12-18T04:30:49;-4.40;99.90
43185;DHT22;28803;52.308;19.096;2022-12-18T04:33:17;-4.30;99.90
43185;DHT22;28803;52.308;19.096;2022-12-18T04:35:44;-4.40;99.90
43185;DHT22;28803;52.308;19.096;2022-12-18T04:38:11;-4.30;99.90
43185;DHT22;28803;52.308;19.096;2022-12-18T04:40:38;-4.30;99.90
43185;DHT22;28803;52.308;19.096;2022-12-18T04:43:07;-4.40;99.90
43185;DHT22;28803;52.308;19.096;2022-12-18T04:45:35;-4.40;99.90
43185;DHT22;28803;52.308;19.096;2022-12-18T04:48:02;-4.40;99.90
43185;DHT22;28803;52.308;19.096;2022-12-18T04:50:29;-4.40;99.90
43185;DHT22;28803;52.308;19.096;2022-12-18T04:52:57;-4.40;99.90
43185;DHT22;28803;52.308;19.096;2022-12-18T04:55:24;-4.30;99.90
43185;DHT22;28803;52.308;19.096;2022-12-18T04:57:52;-4.40;99.90
43185;DHT22;28803;52.308;19.096;2022-12-18T05:00:19;-4.30;99.90
43185;DHT22;28803;52.308;19.096;2022-12-18T05:02:46;-4.40;99.90
43185;DHT22;28803;52.308;19.096;2022-12-18T05:05:14;-4.40;99.90
43185;DHT22;28803;52.308;19.096;2022-12-18T05:07:42;-4.40;99.90
43185;DHT22;28803;52.308;19.096;2022-12-18T05:10:09;-4.40;99.90
43185;DHT22;28803;52.308;19.096;2022-12-18T05:12:36;-4.40;99.90
43185;DHT22;28803;52.308;19.096;2022-12-18T05:15:30;-4.50;99.90
43185;DHT22;28803;52.308;19.096;2022-12-18T05:17:58;-4.50;99.90
43185;DHT22;28803;52.308;19.096;2022-12-18T05:20:26;-4.40;99.90
43185;DHT22;28803;52.308;19.096;2022-12-18T05:22:54;-4.40;99.90
43185;DHT22;28803;52.308;19.096;2022-12-18T05:25:22;-4.50;99.90
43185;DHT22;28803;52.308;19.096;2022-12-18T05:27:49;-4.50;99.90
43185;DHT22;28803;52.308;19.096;2022-12-18T05:30:16;-4.60;99.90
43185;DHT22;28803;52.308;19.096;2022-12-18T05:32:43;-4.60;99.90
43185;DHT22;28803;52.308;19.096;2022-12-18T05:35:12;-4.60;99.90
43185;DHT22;28803;52.308;19.096;2022-12-18T05:37:39;-4.60;99.90
43185;DHT22;28803;52.308;19.096;2022-12-18T05:40:09;-4.60;99.90
43185;DHT22;28803;52.308;19.096;2022-12-18T05:42:37;-4.60;99.90
43185;DHT22;28803;52.308;19.096;2022-12-18T05:45:05;-4.70;99.90
43185;DHT22;28803;52.308;19.096;2022-12-18T05:47:32;-4.70;99.90
43185;DHT22;28803;52.308;19.096;2022-12-18T05:49:59;-4.70;99.90
43185;DHT22;28803;52.308;19.096;2022-12-18T05:52:26;-4.70;99.90
43185;DHT22;28803;52.308;19.096;2022-12-18T05:54:53;-4.60;99.90
43185;DHT22;28803;52.308;19.096;2022-12-18T05:57:21;-4.70;99.90
43185;DHT22;28803;52.308;19.096;2022-12-18T05:59:48;-4.70;99.90
43185;DHT22;28803;52.308;19.096;2022-12-18T06:02:15;-4.70;99.90
43185;DHT22;28803;52.308;19.096;2022-12-18T06:04:42;-4.70;99.90
43185;DHT22;28803;52.308;19.096;2022-12-18T06:07:10;-4.70;99.90
43185;DHT22;28803;52.308;19.096;2022-12-18T06:09:37;-4.70;99.90
43185;DHT22;28803;52.308;19.096;2022-12-18T06:12:04;-4.70;99.90
43185;DHT22;28803;52.308;19.096;2022-12-18T06:14:31;-4.70;99.90
43185;DHT22;28803;52.308;19.096;2022-12-18T06:16:59;-4.70;99.90
43185;DHT22;28803;52.308;19.096;2022-12-18T06:19:26;-4.70;99.90
43185;DHT22;28803;52.308;19.096;2022-12-18T06:21:53;-4.60;99.90
43185;DHT22;28803;52.308;19.096;2022-12-18T06:24:20;-4.70;99.90
43185;DHT22;28803;52.308;19.096;2022-12-18T06:26:47;-4.70;99.90
43185;DHT22;28803;52.308;19.096;2022-12-18T06:29:14;-4.70;99.90
43185;DHT22;28803;52.308;19.096;2022-12-18T06:31:41;-4.70;99.90
43185;DHT22;28803;52.308;19.096;2022-12-18T06:34:08;-4.70;99.90
43185;DHT22;28803;52.308;19.096;2022-12-18T06:36:36;-4.70;99.90
43185;DHT22;28803;52.308;19.096;2022-12-18T06:39:04;-4.70;99.90
43185;DHT22;28803;52.308;19.096;2022-12-18T06:41:32;-4.70;99.90
43185;DHT22;28803;52.308;19.096;2022-12-18T06:43:59;-4.70;99.90
43185;DHT22;28803;52.308;19.096;2022-12-18T06:46:26;-4.70;99.90
43185;DHT22;28803;52.308;19.096;2022-12-18T06:48:53;-4.70;99.90
43185;DHT22;28803;52.308;19.096;2022-12-18T06:51:23;-4.70;99.90
43185;DHT22;28803;52.308;19.096;2022-12-18T06:53:50;-4.70;99.90
43185;DHT22;28803;52.308;19.096;2022-12-18T06:56:18;-4.70;99.90
43185;DHT22;28803;52.308;19.096;2022-12-18T06:58:45;-4.80;99.90
43185;DHT22;28803;52.308;19.096;2022-12-18T07:01:13;-4.80;99.90
43185;DHT22;28803;52.308;19.096;2022-12-18T07:03:40;-4.80;99.90
43185;DHT22;28803;52.308;19.096;2022-12-18T07:06:18;-4.90;99.90
43185;DHT22;28803;52.308;19.096;2022-12-18T07:08:46;-4.90;99.90
43185;DHT22;28803;52.308;19.096;2022-12-18T07:11:15;-4.90;99.90
43185;DHT22;28803;52.308;19.096;2022-12-18T07:13:42;-4.90;99.90
43185;DHT22;28803;52.308;19.096;2022-12-18T07:16:15;-4.80;99.90
43185;DHT22;28803;52.308;19.096;2022-12-18T07:18:50;-4.70;99.90
43185;DHT22;28803;52.308;19.096;2022-12-18T07:21:19;-4.70;99.90
43185;DHT22;28803;52.308;19.096;2022-12-18T07:23:46;-4.70;99.90
43185;DHT22;28803;52.308;19.096;2022-12-18T07:26:17;-4.70;99.90
43185;DHT22;28803;52.308;19.096;2022-12-18T07:28:45;-4.70;99.90
43185;DHT22;28803;52.308;19.096;2022-12-18T07:31:15;-4.70;99.90
43185;DHT22;28803;52.308;19.096;2022-12-18T07:33:42;-4.80;99.90
43185;DHT22;28803;52.308;19.096;2022-12-18T07:36:10;-4.80;99.90
43185;DHT22;28803;52.308;19.096;2022-12-18T07:38:38;-4.80;99.90
43185;DHT22;28803;52.308;19.096;2022-12-18T07:41:07;-4.70;99.90
43185;DHT22;28803;52.308;19.096;2022-12-18T07:43:35;-4.70;99.90
43185;DHT22;28803;52.308;19.096;2022-12-18T07:46:04;-4.70;99.90
43185;DHT22;28803;52.308;19.096;2022-12-18T07:48:32;-4.70;99.90
43185;DHT22;28803;52.308;19.096;2022-12-18T07:51:00;-4.70;99.90
43185;DHT22;28803;52.308;19.096;2022-12-18T07:53:28;-4.60;99.90
43185;DHT22;28803;52.308;19.096;2022-12-18T07:55:56;-4.60;99.90
43185;DHT22;28803;52.308;19.096;2022-12-18T07:58:43;-4.60;99.90
43185;DHT22;28803;52.308;19.096;2022-12-18T08:01:14;-4.50;99.90
43185;DHT22;28803;52.308;19.096;2022-12-18T08:03:41;-4.50;99.90
43185;DHT22;28803;52.308;19.096;2022-12-18T08:06:09;-4.60;99.90
43185;DHT22;28803;52.308;19.096;2022-12-18T08:08:36;-4.60;99.90
43185;DHT22;28803;52.308;19.096;2022-12-18T08:11:04;-4.60;99.90
43185;DHT22;28803;52.308;19.096;2022-12-18T08:13:31;-4.60;99.90
43185;DHT22;28803;52.308;19.096;2022-12-18T08:16:01;-4.50;99.90
43185;DHT22;28803;52.308;19.096;2022-12-18T08:18:29;-4.50;99.90
43185;DHT22;28803;52.308;19.096;2022-12-18T08:20:56;-4.40;99.90
43185;DHT22;28803;52.308;19.096;2022-12-18T08:23:23;-4.40;99.90
43185;DHT22;28803;52.308;19.096;2022-12-18T08:25:54;-4.40;99.90
43185;DHT22;28803;52.308;19.096;2022-12-18T08:28:21;-4.40;99.90
43185;DHT22;28803;52.308;19.096;2022-12-18T08:30:51;-4.40;99.90
43185;DHT22;28803;52.308;19.096;2022-12-18T08:33:18;-4.30;99.90
43185;DHT22;28803;52.308;19.096;2022-12-18T08:35:46;-4.30;99.90
43185;DHT22;28803;52.308;19.096;2022-12-18T08:38:13;-4.20;99.90
43185;DHT22;28803;52.308;19.096;2022-12-18T08:40:41;-4.20;99.90
43185;DHT22;28803;52.308;19.096;2022-12-18T08:43:10;-4.20;99.90
43185;DHT22;28803;52.308;19.096;2022-12-18T08:45:56;-4.20;99.90
43185;DHT22;28803;52.308;19.096;2022-12-18T08:48:23;-4.20;99.90
43185;DHT22;28803;52.308;19.096;2022-12-18T08:50:58;-4.10;99.90
43185;DHT22;28803;52.308;19.096;2022-12-18T08:53:26;-4.10;99.90
43185;DHT22;28803;52.308;19.096;2022-12-18T08:56:02;-4.00;99.90
43185;DHT22;28803;52.308;19.096;2022-12-18T08:58:29;-4.00;99.90
43185;DHT22;28803;52.308;19.096;2022-12-18T09:01:05;-3.90;99.90
43185;DHT22;28803;52.308;19.096;2022-12-18T09:03:32;-3.80;99.90
43185;DHT22;28803;52.308;19.096;2022-12-18T09:06:00;-3.70;99.90
43185;DHT22;28803;52.308;19.096;2022-12-18T09:08:27;-3.70;99.90
43185;DHT22;28803;52.308;19.096;2022-12-18T09:10:55;-3.60;99.90
43185;DHT22;28803;52.308;19.096;2022-12-18T09:13:22;-3.50;99.90
43185;DHT22;28803;52.308;19.096;2022-12-18T09:15:51;-3.60;99.90
43185;DHT22;28803;52.308;19.096;2022-12-18T09:18:21;-3.70;99.90
43185;DHT22;28803;52.308;19.096;2022-12-18T09:20:49;-3.70;99.90
43185;DHT22;28803;52.308;19.096;2022-12-18T09:23:18;-3.70;99.90
43185;DHT22;28803;52.308;19.096;2022-12-18T09:25:47;-3.70;99.90
43185;DHT22;28803;52.308;19.096;2022-12-18T09:28:17;-3.80;99.90
43185;DHT22;28803;52.308;19.096;2022-12-18T09:30:47;-3.80;99.90
43185;DHT22;28803;52.308;19.096;2022-12-18T09:33:16;-3.80;99.90
43185;DHT22;28803;52.308;19.096;2022-12-18T09:35:45;-3.80;99.90
43185;DHT22;28803;52.308;19.096;2022-12-18T09:38:17;-3.80;99.90
43185;DHT22;28803;52.308;19.096;2022-12-18T09:40:48;-3.80;99.90
43185;DHT22;28803;52.308;19.096;2022-12-18T09:43:23;-3.80;99.90
43185;DHT22;28803;52.308;19.096;2022-12-18T09:45:55;-3.90;99.90
43185;DHT22;28803;52.308;19.096;2022-12-18T09:48:28;-3.80;99.90
43185;DHT22;28803;52.308;19.096;2022-12-18T09:51:06;-3.80;99.90
43185;DHT22;28803;52.308;19.096;2022-12-18T09:53:38;-3.80;99.90
43185;DHT22;28803;52.308;19.096;2022-12-18T09:56:14;-3.70;99.90
43185;DHT22;28803;52.308;19.096;2022-12-18T09:58:52;-3.70;99.90
43185;DHT22;28803;52.308;19.096;2022-12-18T10:01:22;-3.70;99.90
43185;DHT22;28803;52.308;19.096;2022-12-18T10:03:51;-3.80;99.90
43185;DHT22;28803;52.308;19.096;2022-12-18T10:06:36;-3.80;99.90
43185;DHT22;28803;52.308;19.096;2022-12-18T10:09:10;-3.80;99.90
43185;DHT22;28803;52.308;19.096;2022-12-18T10:15:04;-3.90;99.90
43185;DHT22;28803;52.308;19.096;2022-12-18T10:17:45;-3.90;99.90
43185;DHT22;28803;52.308;19.096;2022-12-18T10:20:25;-3.90;99.90
43185;DHT22;28803;52.308;19.096;2022-12-18T10:26:05;-3.90;99.90
43185;DHT22;28803;52.308;19.096;2022-12-18T10:28:37;-3.90;99.90
43185;DHT22;28803;52.308;19.096;2022-12-18T10:31:07;-4.00;99.90
43185;DHT22;28803;52.308;19.096;2022-12-18T10:33:40;-4.10;99.90
43185;DHT22;28803;52.308;19.096;2022-12-18T10:36:08;-4.10;99.90
43185;DHT22;28803;52.308;19.096;2022-12-18T10:38:36;-4.10;99.90
43185;DHT22;28803;52.308;19.096;2022-12-18T10:41:06;-4.00;99.90
43185;DHT22;28803;52.308;19.096;2022-12-18T10:43:37;-3.90;99.90
43185;DHT22;28803;52.308;19.096;2022-12-18T10:48:55;-3.70;99.90
43185;DHT22;28803;52.308;19.096;2022-12-18T10:51:33;-3.60;99.90
43185;DHT22;28803;52.308;19.096;2022-12-18T10:54:03;-3.50;99.90
43185;DHT22;28803;52.308;19.096;2022-12-18T10:56:35;-3.50;99.90
43185;DHT22;28803;52.308;19.096;2022-12-18T10:59:07;-3.60;99.90
43185;DHT22;28803;52.308;19.096;2022-12-18T11:01:48;-3.60;99.90
43185;DHT22;28803;52.308;19.096;2022-12-18T11:04:19;-3.50;99.90
43185;DHT22;28803;52.308;19.096;2022-12-18T11:09:27;-3.70;99.90
43185;DHT22;28803;52.308;19.096;2022-12-18T11:11:58;-3.80;99.90
43185;DHT22;28803;52.308;19.096;2022-12-18T11:14:31;-3.80;99.90
43185;DHT22;28803;52.308;19.096;2022-12-18T11:16:59;-3.80;99.90
43185;DHT22;28803;52.308;19.096;2022-12-18T11:19:58;-3.90;99.90
43185;DHT22;28803;52.308;19.096;2022-12-18T11:22:32;-4.00;99.90
43185;DHT22;28803;52.308;19.096;2022-12-18T11:25:00;-4.00;99.90
43185;DHT22;28803;52.308;19.096;2022-12-18T11:27:52;-4.10;99.90
43185;DHT22;28803;52.308;19.096;2022-12-18T11:30:32;-4.00;99.90
43185;DHT22;28803;52.308;19.096;2022-12-18T11:33:13;-4.10;99.90
43185;DHT22;28803;52.308;19.096;2022-12-18T11:36:00;-4.10;99.90
43185;DHT22;28803;52.308;19.096;2022-12-18T11:38:36;-4.20;99.90
43185;DHT22;28803;52.308;19.096;2022-12-18T11:41:19;-4.20;99.90
43185;DHT22;28803;52.308;19.096;2022-12-18T11:43:58;-4.30;99.90
43185;DHT22;28803;52.308;19.096;2022-12-18T11:46:34;-4.20;99.90
43185;DHT22;28803;52.308;19.096;2022-12-18T11:49:10;-4.00;99.90
43185;DHT22;28803;52.308;19.096;2022-12-18T11:51:55;-4.40;99.90
43185;DHT22;28803;52.308;19.096;2022-12-18T11:54:25;-4.30;99.90
43185;DHT22;28803;52.308;19.096;2022-12-18T11:57:13;-4.30;99.90
43185;DHT22;28803;52.308;19.096;2022-12-18T12:00:00;-4.20;99.90
43185;DHT22;28803;52.308;19.096;2022-12-18T12:11:26;-4.10;99.90
43185;DHT22;28803;52.308;19.096;2022-12-18T12:20:09;-4.10;99.90
43185;DHT22;28803;52.308;19.096;2022-12-18T12:23:34;-4.20;99.90
43185;DHT22;28803;52.308;19.096;2022-12-18T12:25:47;-4.40;99.90
43185;DHT22;28803;52.308;19.096;2022-12-18T12:28:42;-4.40;99.90
43185;DHT22;28803;52.308;19.096;2022-12-18T12:39:36;-4.70;99.90
43185;DHT22;28803;52.308;19.096;2022-12-18T12:42:08;-4.80;99.90
43185;DHT22;28803;52.308;19.096;2022-12-18T12:44:57;-4.80;99.90
43185;DHT22;28803;52.308;19.096;2022-12-18T12:47:52;-4.80;99.90
43185;DHT22;28803;52.308;19.096;2022-12-18T12:50:21;-4.70;99.90
43185;DHT22;28803;52.308;19.096;2022-12-18T12:52:53;-4.70;99.90
43185;DHT22;28803;52.308;19.096;2022-12-18T12:55:24;-4.80;99.90
43185;DHT22;28803;52.308;19.096;2022-12-18T12:58:06;-4.90;99.90
43185;DHT22;28803;52.308;19.096;2022-12-18T13:00:49;-5.00;99.90
43185;DHT22;28803;52.308;19.096;2022-12-18T13:03:30;-5.10;99.90
43185;DHT22;28803;52.308;19.096;2022-12-18T13:06:09;-5.30;99.90
43185;DHT22;28803;52.308;19.096;2022-12-18T13:09:00;-5.40;99.90
43185;DHT22;28803;52.308;19.096;2022-12-18T13:11:42;-5.40;99.90
43185;DHT22;28803;52.308;19.096;2022-12-18T13:14:35;-5.50;99.90
43185;DHT22;28803;52.308;19.096;2022-12-18T13:20:08;-5.70;99.90
43185;DHT22;28803;52.308;19.096;2022-12-18T13:22:56;-5.70;99.90
43185;DHT22;28803;52.308;19.096;2022-12-18T13:25:37;-5.70;99.90
43185;DHT22;28803;52.308;19.096;2022-12-18T13:28:15;-5.70;99.90
43185;DHT22;28803;52.308;19.096;2022-12-18T13:31:03;-5.70;99.90
43185;DHT22;28803;52.308;19.096;2022-12-18T13:33:38;-5.70;99.90
43185;DHT22;28803;52.308;19.096;2022-12-18T13:41:52;-5.80;99.90
43185;DHT22;28803;52.308;19.096;2022-12-18T13:44:33;-5.80;99.90
43185;DHT22;28803;52.308;19.096;2022-12-18T13:47:42;-5.80;99.90
43185;DHT22;28803;52.308;19.096;2022-12-18T13:50:23;-5.90;99.90
43185;DHT22;28803;52.308;19.096;2022-12-18T13:52:58;-6.00;99.90
43185;DHT22;28803;52.308;19.096;2022-12-18T13:55:25;-6.00;99.90
43185;DHT22;28803;52.308;19.096;2022-12-18T13:58:04;-6.10;99.90
43185;DHT22;28803;52.308;19.096;2022-12-18T14:00:31;-6.10;99.90
43185;DHT22;28803;52.308;19.096;2022-12-18T14:03:00;-6.10;99.90
43185;DHT22;28803;52.308;19.096;2022-12-18T14:05:28;-6.10;99.90
43185;DHT22;28803;52.308;19.096;2022-12-18T14:08:03;-6.10;99.90
43185;DHT22;28803;52.308;19.096;2022-12-18T14:10:32;-6.10;99.90
43185;DHT22;28803;52.308;19.096;2022-12-18T14:13:41;-6.10;99.90
43185;DHT22;28803;52.308;19.096;2022-12-18T14:16:07;-6.10;99.90
43185;DHT22;28803;52.308;19.096;2022-12-18T14:18:41;-6.10;99.90
43185;DHT22;28803;52.308;19.096;2022-12-18T14:21:19;-6.10;99.90
43185;DHT22;28803;52.308;19.096;2022-12-18T14:23:48;-6.10;99.90
43185;DHT22;28803;52.308;19.096;2022-12-18T14:26:27;-6.20;99.90
43185;DHT22;28803;52.308;19.096;2022-12-18T14:28:57;-6.20;99.90
43185;DHT22;28803;52.308;19.096;2022-12-18T14:31:27;-6.30;99.90
43185;DHT22;28803;52.308;19.096;2022-12-18T14:33:55;-6.30;99.90
43185;DHT22;28803;52.308;19.096;2022-12-18T14:36:24;-6.40;99.90
43185;DHT22;28803;52.308;19.096;2022-12-18T14:38:54;-6.40;99.90
43185;DHT22;28803;52.308;19.096;2022-12-18T14:41:22;-6.30;99.90
43185;DHT22;28803;52.308;19.096;2022-12-18T14:43:53;-6.50;99.90
43185;DHT22;28803;52.308;19.096;2022-12-18T14:51:47;-6.50;99.90
43185;DHT22;28803;52.308;19.096;2022-12-18T14:54:18;-6.50;99.90
43185;DHT22;28803;52.308;19.096;2022-12-18T14:56:48;-6.60;99.90
43185;DHT22;28803;52.308;19.096;2022-12-18T14:59:24;-6.60;99.90
43185;DHT22;28803;52.308;19.096;2022-12-18T15:02:15;-6.60;99.90
43185;DHT22;28803;52.308;19.096;2022-12-18T15:04:46;-6.70;99.90
43185;DHT22;28803;52.308;19.096;2022-12-18T15:09:47;-6.70;99.90
43185;DHT22;28803;52.308;19.096;2022-12-18T15:12:35;-6.70;99.90
43185;DHT22;28803;52.308;19.096;2022-12-18T15:15:04;-6.70;99.90
43185;DHT22;28803;52.308;19.096;2022-12-18T15:17:31;-6.70;99.90
43185;DHT22;28803;52.308;19.096;2022-12-18T15:20:01;-6.80;99.90
43185;DHT22;28803;52.308;19.096;2022-12-18T15:22:32;-6.80;99.90
43185;DHT22;28803;52.308;19.096;2022-12-18T15:25:01;-6.80;99.90
43185;DHT22;28803;52.308;19.096;2022-12-18T15:27:36;-6.80;99.90
43185;DHT22;28803;52.308;19.096;2022-12-18T15:32:37;-6.90;99.90
43185;DHT22;28803;52.308;19.096;2022-12-18T15:37:36;-6.90;99.90
43185;DHT22;28803;52.308;19.096;2022-12-18T15:40:04;-7.00;99.90
43185;DHT22;28803;52.308;19.096;2022-12-18T15:42:31;-7.10;99.90
43185;DHT22;28803;52.308;19.096;2022-12-18T15:45:16;-7.10;99.90
43185;DHT22;28803;52.308;19.096;2022-12-18T15:47:45;-7.10;99.90
43185;DHT22;28803;52.308;19.096;2022-12-18T15:50:12;-7.00;99.90
43185;DHT22;28803;52.308;19.096;2022-12-18T15:52:47;-7.00;99.90
43185;DHT22;28803;52.308;19.096;2022-12-18T15:55:19;-6.90;99.90
43185;DHT22;28803;52.308;19.096;2022-12-18T15:58:06;-6.90;99.90
43185;DHT22;28803;52.308;19.096;2022-12-18T16:00:36;-6.90;99.90
43185;DHT22;28803;52.308;19.096;2022-12-18T16:03:04;-6.90;99.90
43185;DHT22;28803;52.308;19.096;2022-12-18T16:05:32;-6.90;99.90
43185;DHT22;28803;52.308;19.096;2022-12-18T16:07:59;-6.90;99.90
43185;DHT22;28803;52.308;19.096;2022-12-18T16:10:26;-7.00;99.90
43185;DHT22;28803;52.308;19.096;2022-12-18T16:12:54;-7.00;99.90
43185;DHT22;28803;52.308;19.096;2022-12-18T16:15:21;-6.90;99.90
43185;DHT22;28803;52.308;19.096;2022-12-18T16:17:51;-6.90;99.90
43185;DHT22;28803;52.308;19.096;2022-12-18T16:20:21;-6.90;99.90
43185;DHT22;28803;52.308;19.096;2022-12-18T16:22:48;-6.80;99.90
43185;DHT22;28803;52.308;19.096;2022-12-18T16:25:18;-6.80;99.90
43185;DHT22;28803;52.308;19.096;2022-12-18T16:27:49;-6.80;99.90
43185;DHT22;28803;52.308;19.096;2022-12-18T16:30:20;-6.90;99.90
43185;DHT22;28803;52.308;19.096;2022-12-18T16:32:47;-6.90;99.90
43185;DHT22;28803;52.308;19.096;2022-12-18T16:35:16;-6.90;99.90
43185;DHT22;28803;52.308;19.096;2022-12-18T16:37:43;-6.90;99.90
43185;DHT22;28803;52.308;19.096;2022-12-18T16:40:12;-6.90;99.90
43185;DHT22;28803;52.308;19.096;2022-12-18T16:42:41;-6.80;99.90
43185;DHT22;28803;52.308;19.096;2022-12-18T16:45:11;-6.80;99.90
43185;DHT22;28803;52.308;19.096;2022-12-18T16:47:38;-6.80;99.90
43185;DHT22;28803;52.308;19.096;2022-12-18T16:50:07;-6.70;99.90
43185;DHT22;28803;52.308;19.096;2022-12-18T16:52:34;-6.70;99.90
43185;DHT22;28803;52.308;19.096;2022-12-18T16:55:02;-6.70;99.90
43185;DHT22;28803;52.308;19.096;2022-12-18T16:57:29;-6.80;99.90